createdAt,value
2018-09-05T00:01:52.180Z,21.10
2018-09-05T00:04:22.001Z,21.10
2018-09-05T00:06:51.698Z,21.10
2018-09-05T00:09:21.763Z,21.10
2018-09-05T00:11:51.401Z,21.10
2018-09-05T00:14:21.197Z,21.10
2018-09-05T00:16:50.958Z,21.10
2018-09-05T00:19:20.684Z,21.10
2018-09-05T00:21:50.434Z,21.10
2018-09-05T00:24:20.062Z,21.10
2018-09-05T00:26:49.727Z,21.10
2018-09-05T00:29:19.389Z,21.10
2018-09-05T00:31:49.151Z,21.00
2018-09-05T00:34:18.775Z,21.00
2018-09-05T00:36:48.568Z,21.00
2018-09-05T00:39:18.306Z,21.10
2018-09-05T00:41:48.193Z,21.00
2018-09-05T00:44:17.864Z,20.90
2018-09-05T00:46:47.736Z,20.90
2018-09-05T00:49:17.461Z,20.90
2018-09-05T00:51:47.340Z,20.90
2018-09-05T00:54:17.094Z,20.90
2018-09-05T00:56:46.963Z,20.90
2018-09-05T00:59:16.693Z,20.80
2018-09-05T01:01:46.623Z,20.80
2018-09-05T01:04:16.274Z,20.70
2018-09-05T01:06:45.833Z,20.60
2018-09-05T01:09:15.590Z,20.60
2018-09-05T01:11:45.391Z,20.60
2018-09-05T01:14:15.157Z,20.40
2018-09-05T01:16:45.034Z,20.40
2018-09-05T01:19:14.643Z,20.30
2018-09-05T01:21:44.337Z,20.20
2018-09-05T01:24:13.919Z,20.20
2018-09-05T01:26:43.721Z,20.30
2018-09-05T01:29:13.457Z,20.40
2018-09-05T01:31:43.420Z,20.40
2018-09-05T01:34:13.301Z,20.40
2018-09-05T01:36:43.030Z,20.30
2018-09-05T01:39:12.787Z,20.20
2018-09-05T01:41:42.519Z,20.20
2018-09-05T01:44:12.186Z,20.20
2018-09-05T01:46:41.781Z,20.20
2018-09-05T01:49:11.578Z,20.20
2018-09-05T01:51:41.578Z,20.30
2018-09-05T01:54:11.263Z,20.30
2018-09-05T01:56:40.981Z,20.30
2018-09-05T01:59:10.595Z,20.30
2018-09-05T02:01:40.222Z,20.30
2018-09-05T02:04:10.018Z,20.30
2018-09-05T02:06:39.869Z,20.30
2018-09-05T02:09:12.184Z,20.30
2018-09-05T02:11:41.976Z,20.30
2018-09-05T02:14:12.593Z,20.20
2018-09-05T02:16:43.062Z,20.20
2018-09-05T02:19:12.727Z,20.20
2018-09-05T02:21:42.402Z,20.20
2018-09-05T02:24:12.410Z,20.20
2018-09-05T02:26:42.106Z,20.20
2018-09-05T02:29:11.543Z,20.20
2018-09-05T02:31:41.042Z,20.20
2018-09-05T02:34:10.797Z,20.20
2018-09-05T02:36:40.566Z,20.20
2018-09-05T02:39:11.607Z,20.20
2018-09-05T02:41:41.388Z,20.20
2018-09-05T02:44:16.263Z,20.20
2018-09-05T02:46:46.409Z,20.20
2018-09-05T02:49:16.207Z,20.10
2018-09-05T02:51:46.093Z,20.10
2018-09-05T02:54:15.844Z,20.00
2018-09-05T02:56:45.551Z,19.90
2018-09-05T02:59:15.435Z,19.90
2018-09-05T03:01:44.973Z,19.90
2018-09-05T03:04:14.634Z,19.80
2018-09-05T03:06:44.458Z,19.80
2018-09-05T03:09:14.044Z,19.80
2018-09-05T03:11:43.752Z,19.80
2018-09-05T03:14:13.485Z,19.80
2018-09-05T03:16:43.226Z,19.80
2018-09-05T03:19:13.029Z,19.90
2018-09-05T03:21:42.660Z,20.00
2018-09-05T03:24:12.279Z,20.00
2018-09-05T03:26:42.016Z,20.00
2018-09-05T03:29:11.952Z,20.00
2018-09-05T03:31:41.901Z,20.10
2018-09-05T03:34:11.665Z,20.00
2018-09-05T03:36:41.695Z,20.00
2018-09-05T03:39:12.266Z,20.00
2018-09-05T03:41:42.045Z,20.00
2018-09-05T03:44:11.715Z,20.00
2018-09-05T03:46:41.233Z,20.00
2018-09-05T03:49:10.952Z,19.90
2018-09-05T03:51:41.097Z,20.00
2018-09-05T03:54:11.052Z,20.00
2018-09-05T03:56:40.818Z,20.00
2018-09-05T03:59:10.381Z,20.00
2018-09-05T04:01:39.961Z,20.10
2018-09-05T04:04:09.825Z,20.10
2018-09-05T04:53:46.331Z,19.50
2018-09-05T04:56:16.232Z,20.50
2018-09-05T04:58:46.091Z,20.70
2018-09-05T05:01:15.696Z,20.80
2018-09-05T05:03:45.667Z,20.90
2018-09-05T05:06:15.342Z,20.90
2018-09-05T05:08:45.302Z,21.00
2018-09-05T05:11:14.986Z,21.10
2018-09-05T05:13:44.668Z,21.10
2018-09-05T05:16:14.343Z,21.20
2018-09-05T05:18:43.933Z,21.40
2018-09-05T05:21:13.793Z,21.50
2018-09-05T05:23:43.613Z,21.60
2018-09-05T05:26:13.242Z,21.70
2018-09-05T05:28:42.997Z,21.80
2018-09-05T05:31:12.506Z,21.90
2018-09-05T05:33:42.119Z,22.00
2018-09-05T05:36:11.885Z,22.10
2018-09-05T05:38:41.565Z,22.20
2018-09-05T05:41:11.289Z,22.30
2018-09-05T05:43:41.022Z,22.40
2018-09-05T05:46:11.211Z,22.50
2018-09-05T05:48:40.848Z,22.70
2018-09-05T05:51:10.480Z,22.70
2018-09-05T05:53:40.151Z,22.80
2018-09-05T05:56:10.121Z,22.80
2018-09-05T05:58:39.892Z,22.90
2018-09-05T06:01:09.618Z,23.00
2018-09-05T06:03:42.590Z,23.10
2018-09-05T06:06:12.440Z,23.10
2018-09-05T06:08:41.999Z,23.20
2018-09-05T06:11:11.676Z,23.30
2018-09-05T06:13:41.355Z,23.50
2018-09-05T06:16:11.059Z,23.60
2018-09-05T06:18:41.465Z,23.80
2018-09-05T06:21:11.277Z,23.90
2018-09-05T06:23:40.941Z,24.10
2018-09-05T06:26:10.394Z,24.20
2018-09-05T06:28:40.077Z,24.20
2018-09-05T06:31:09.829Z,24.40
2018-09-05T06:33:39.718Z,24.60
2018-09-05T06:36:09.375Z,24.60
2018-09-05T06:38:39.016Z,24.70
2018-09-05T06:41:14.730Z,24.80
2018-09-05T06:43:44.305Z,24.90
2018-09-05T06:46:14.005Z,25.00
2018-09-05T06:48:43.595Z,25.10
2018-09-05T06:51:13.296Z,25.20
2018-09-05T06:53:42.948Z,25.30
2018-09-05T06:56:12.623Z,25.50
2018-09-05T06:58:42.804Z,25.50
2018-09-05T07:01:12.429Z,25.50
2018-09-05T07:03:42.287Z,25.50
2018-09-05T07:06:12.049Z,25.60
2018-09-05T07:08:41.679Z,25.70
2018-09-05T07:11:17.974Z,25.80
2018-09-05T07:13:47.890Z,26.00
2018-09-05T07:16:17.819Z,26.10
2018-09-05T07:18:47.708Z,26.10
2018-09-05T07:21:17.573Z,26.30
2018-09-05T07:23:47.337Z,26.60
2018-09-05T07:26:16.951Z,26.70
2018-09-05T07:28:46.910Z,26.80
2018-09-05T07:31:16.817Z,26.80
2018-09-05T07:33:46.753Z,27.00
2018-09-05T07:36:16.353Z,27.20
2018-09-05T07:38:46.323Z,27.30
2018-09-05T07:41:16.093Z,27.50
2018-09-05T07:43:45.719Z,27.50
2018-09-05T07:46:15.394Z,27.50
2018-09-05T07:48:45.062Z,27.70
2018-09-05T07:51:14.891Z,28.20
2018-09-05T07:53:44.587Z,28.30
2018-09-05T07:56:14.207Z,28.40
2018-09-05T07:58:43.858Z,28.80
2018-09-05T08:01:14.474Z,29.10
2018-09-05T08:03:44.413Z,29.50
2018-09-05T08:06:14.451Z,29.70
2018-09-05T08:08:44.064Z,29.80
2018-09-05T08:11:13.844Z,30.10
2018-09-05T08:13:43.500Z,30.20
2018-09-05T08:16:13.340Z,30.50
2018-09-05T08:18:43.055Z,30.60
2018-09-05T08:21:12.676Z,31.10
2018-09-05T08:23:42.368Z,31.10
2018-09-05T08:26:12.047Z,31.40
2018-09-05T08:28:41.675Z,31.40
2018-09-05T08:31:11.181Z,31.60
2018-09-05T08:33:40.751Z,31.20
2018-09-05T08:36:10.660Z,31.30
2018-09-05T08:38:40.134Z,31.00
2018-09-05T08:41:11.268Z,31.00
2018-09-05T08:43:41.900Z,30.80
2018-09-05T08:46:11.710Z,30.80
2018-09-05T08:48:41.376Z,30.90
2018-09-05T08:51:10.987Z,30.90
2018-09-05T08:53:40.488Z,30.80
2018-09-05T08:56:10.197Z,31.00
2018-09-05T08:58:40.044Z,31.00
2018-09-05T09:01:09.794Z,30.90
2018-09-05T09:03:39.544Z,31.00
2018-09-05T09:06:09.383Z,31.00
2018-09-05T09:08:39.073Z,31.00
2018-09-05T09:11:09.068Z,31.10
2018-09-05T09:13:38.906Z,31.20
2018-09-05T09:16:09.015Z,31.20
2018-09-05T09:18:38.861Z,31.30
2018-09-05T09:21:08.525Z,31.10
2018-09-05T09:23:38.135Z,31.10
2018-09-05T09:26:08.523Z,31.20
2018-09-05T09:28:38.281Z,31.20
2018-09-05T09:31:08.534Z,31.40
2018-09-05T09:33:38.266Z,31.20
2018-09-05T09:36:08.018Z,31.40
2018-09-05T09:38:37.670Z,31.60
2018-09-05T09:41:07.337Z,31.50
2018-09-05T09:43:36.965Z,31.60
2018-09-05T09:46:06.547Z,31.40
2018-09-05T09:48:36.260Z,31.60
2018-09-05T09:51:06.140Z,31.70
2018-09-05T09:53:36.000Z,31.70
2018-09-05T09:56:05.860Z,31.90
2018-09-05T09:58:35.563Z,31.90
2018-09-05T10:01:10.244Z,31.70
2018-09-05T10:03:44.946Z,31.90
2018-09-05T10:06:19.992Z,31.90
2018-09-05T10:08:54.695Z,32.00
2018-09-05T10:11:29.477Z,32.10
2018-09-05T10:14:04.258Z,32.30
2018-09-05T10:16:39.221Z,32.00
2018-09-05T10:19:10.231Z,32.20
2018-09-05T10:21:40.040Z,32.20
2018-09-05T10:24:09.715Z,32.30
2018-09-05T10:26:39.436Z,32.40
2018-09-05T10:29:09.158Z,32.40
2018-09-05T10:31:39.133Z,32.40
2018-09-05T10:34:09.051Z,32.40
2018-09-05T10:36:38.702Z,32.60
2018-09-05T10:39:10.548Z,32.30
2018-09-05T10:41:40.648Z,32.60
2018-09-05T10:44:10.608Z,32.40
2018-09-05T10:46:40.367Z,32.50
2018-09-05T10:49:10.064Z,32.70
2018-09-05T10:51:44.953Z,32.90
2018-09-05T10:54:14.610Z,32.80
2018-09-05T10:56:44.575Z,33.00
2018-09-05T10:59:14.621Z,33.10
2018-09-05T11:01:44.304Z,33.30
2018-09-05T11:04:14.041Z,33.60
2018-09-05T11:06:43.921Z,33.70
2018-09-05T11:09:13.646Z,34.00
2018-09-05T11:11:43.352Z,34.00
2018-09-05T11:14:12.893Z,34.00
2018-09-05T11:16:42.764Z,34.20
2018-09-05T11:19:12.451Z,34.10
2018-09-05T11:21:42.025Z,34.00
2018-09-05T11:24:11.823Z,34.20
2018-09-05T11:26:41.482Z,34.20
2018-09-05T11:29:11.229Z,34.50
2018-09-05T11:31:41.004Z,34.40
2018-09-05T11:34:11.451Z,34.20
2018-09-05T11:36:41.149Z,34.20
2018-09-05T11:39:13.896Z,34.40
2018-09-05T11:41:43.599Z,34.40
2018-09-05T11:44:13.292Z,34.90
2018-09-05T11:46:43.077Z,34.90
2018-09-05T11:49:12.760Z,34.70
2018-09-05T11:51:42.286Z,34.70
2018-09-05T11:54:11.888Z,34.70
2018-09-05T11:56:41.536Z,34.60
2018-09-05T11:59:11.273Z,34.70
2018-09-05T12:01:41.121Z,34.60
2018-09-05T12:04:10.909Z,34.90
2018-09-05T12:06:40.762Z,34.70
2018-09-05T12:09:12.071Z,34.70
2018-09-05T12:11:41.772Z,34.70
2018-09-05T12:14:11.656Z,34.40
2018-09-05T12:16:41.452Z,34.40
2018-09-05T12:19:11.211Z,34.30
2018-09-05T12:21:40.887Z,34.30
2018-09-05T12:24:10.838Z,34.40
2018-09-05T12:26:40.517Z,34.60
2018-09-05T12:29:12.321Z,34.10
2018-09-05T12:31:42.904Z,33.70
2018-09-05T12:34:13.492Z,33.30
2018-09-05T12:36:43.102Z,33.10
2018-09-05T12:39:14.913Z,33.30
2018-09-05T12:41:44.667Z,33.30
2018-09-05T12:44:14.497Z,33.10
2018-09-05T12:46:44.137Z,32.90
2018-09-05T12:49:13.723Z,32.80
2018-09-05T12:51:43.358Z,32.80
2018-09-05T12:54:13.475Z,32.70
2018-09-05T12:56:43.544Z,32.80
2018-09-05T12:59:13.288Z,32.80
2018-09-05T13:01:43.030Z,32.70
2018-09-05T13:04:12.658Z,32.90
2018-09-05T13:06:42.347Z,32.80
2018-09-05T13:09:13.880Z,32.90
2018-09-05T13:11:44.162Z,33.10
2018-09-05T13:14:13.988Z,33.20
2018-09-05T13:16:43.675Z,33.00
2018-09-05T13:19:16.207Z,32.80
2018-09-05T13:21:45.925Z,32.80
2018-09-05T13:24:15.607Z,32.80
2018-09-05T13:26:45.303Z,32.60
2018-09-05T13:29:15.026Z,32.80
2018-09-05T13:31:44.714Z,32.80
2018-09-05T13:34:14.223Z,32.80
2018-09-05T13:36:43.887Z,32.70
2018-09-05T13:39:13.527Z,32.80
2018-09-05T13:41:43.200Z,32.90
2018-09-05T13:44:12.992Z,32.70
2018-09-05T13:46:42.689Z,32.80
2018-09-05T13:49:12.357Z,33.00
2018-09-05T13:51:42.209Z,33.00
2018-09-05T13:54:11.967Z,33.00
2018-09-05T13:56:41.551Z,32.80
2018-09-05T13:59:11.258Z,32.80
2018-09-05T14:01:40.942Z,32.80
2018-09-05T14:04:10.498Z,32.50
2018-09-05T14:06:40.177Z,32.30
2018-09-05T14:09:12.045Z,32.20
2018-09-05T14:11:42.010Z,32.40
2018-09-05T14:14:11.511Z,32.40
2018-09-05T14:16:41.191Z,32.50
2018-09-05T14:19:10.996Z,32.20
2018-09-05T14:21:40.762Z,32.00
2018-09-05T14:24:10.658Z,31.90
2018-09-05T14:26:40.444Z,31.90
2018-09-05T14:29:10.137Z,31.70
2018-09-05T14:31:39.924Z,31.50
2018-09-05T14:34:09.591Z,31.70
2018-09-05T14:36:39.405Z,31.70
2018-09-05T14:39:11.687Z,31.80
2018-09-05T14:41:41.641Z,31.70
2018-09-05T14:44:11.300Z,31.50
2018-09-05T14:46:41.023Z,31.30
2018-09-05T14:49:10.739Z,31.00
2018-09-05T14:51:40.488Z,30.80
2018-09-05T14:54:10.162Z,30.50
2018-09-05T14:56:39.906Z,30.50
2018-09-05T14:59:09.730Z,30.30
2018-09-05T15:01:39.358Z,30.10
2018-09-05T15:04:09.191Z,30.10
2018-09-05T15:06:38.966Z,30.00
2018-09-05T15:09:11.590Z,29.80
2018-09-05T15:11:41.097Z,29.80
2018-09-05T15:14:17.366Z,29.60
2018-09-05T15:16:47.112Z,29.60
2018-09-05T15:19:16.831Z,29.40
2018-09-05T15:21:46.611Z,29.40
2018-09-05T15:24:16.179Z,29.30
2018-09-05T15:26:45.655Z,29.20
2018-09-05T15:29:15.268Z,29.20
2018-09-05T15:31:44.913Z,29.20
2018-09-05T15:34:14.725Z,29.10
2018-09-05T15:36:44.428Z,29.10
2018-09-05T15:39:14.340Z,29.00
2018-09-05T15:41:44.375Z,29.00
2018-09-05T15:44:14.125Z,29.00
2018-09-05T15:46:44.020Z,28.80
2018-09-05T15:49:13.855Z,28.80
2018-09-05T15:51:43.404Z,28.70
2018-09-05T15:54:13.110Z,28.70
2018-09-05T15:56:42.894Z,28.70
2018-09-05T15:59:12.474Z,28.70
2018-09-05T16:01:42.227Z,28.60
2018-09-05T16:04:11.998Z,28.60
2018-09-05T16:06:41.591Z,28.60
2018-09-05T16:09:12.067Z,28.50
2018-09-05T16:11:41.660Z,28.50
2018-09-05T16:14:11.239Z,28.50
2018-09-05T16:16:40.804Z,28.50
2018-09-05T16:19:10.418Z,28.50
2018-09-05T16:21:40.113Z,28.40
2018-09-05T16:24:09.829Z,28.30
2018-09-05T16:26:39.414Z,28.20
2018-09-05T16:29:09.112Z,28.10
2018-09-05T16:31:39.001Z,28.00
2018-09-05T16:34:09.612Z,28.00
2018-09-05T16:36:39.353Z,28.00
2018-09-05T16:39:11.816Z,27.90
2018-09-05T16:41:42.014Z,28.00
2018-09-05T16:44:12.118Z,28.00
2018-09-05T16:46:41.770Z,27.90
2018-09-05T16:49:11.491Z,28.00
2018-09-05T16:51:41.219Z,27.90
2018-09-05T16:54:11.090Z,27.80
2018-09-05T16:56:40.728Z,27.70
2018-09-05T16:59:10.634Z,27.60
2018-09-05T17:01:40.380Z,27.60
2018-09-05T17:04:10.058Z,27.50
2018-09-05T17:06:39.790Z,27.40
2018-09-05T17:09:12.417Z,27.40
2018-09-05T17:11:42.330Z,27.20
2018-09-05T17:14:11.996Z,27.20
2018-09-05T17:16:41.668Z,27.10
2018-09-05T17:19:11.382Z,26.90
2018-09-05T17:21:40.995Z,26.80
2018-09-05T17:24:10.605Z,26.80
2018-09-05T17:26:40.208Z,26.60
2018-09-05T17:29:09.867Z,26.50
2018-09-05T17:31:39.732Z,26.50
2018-09-05T17:34:09.687Z,26.30
2018-09-05T17:36:39.370Z,26.20
2018-09-05T17:39:10.818Z,26.10
2018-09-05T17:41:40.955Z,25.90
2018-09-05T17:44:11.403Z,25.70
2018-09-05T17:46:41.050Z,25.60
2018-09-05T17:49:10.941Z,25.50
2018-09-05T17:51:40.622Z,25.40
2018-09-05T17:54:10.261Z,25.00
2018-09-05T17:56:40.049Z,24.90
2018-09-05T17:59:09.692Z,24.70
2018-09-05T18:01:39.601Z,24.50
2018-09-05T18:04:09.522Z,24.40
2018-09-05T18:06:39.477Z,24.20
2018-09-05T18:09:10.791Z,24.00
2018-09-05T18:11:40.529Z,23.90
2018-09-05T18:14:10.216Z,23.70
2018-09-05T18:16:40.093Z,23.50
2018-09-05T18:19:09.792Z,23.20
2018-09-05T18:21:39.543Z,22.90
2018-09-05T18:24:09.471Z,22.60
2018-09-05T18:26:39.080Z,22.40
2018-09-05T18:29:09.090Z,22.20
2018-09-05T18:31:39.122Z,22.10
2018-09-05T18:34:08.962Z,22.00
2018-09-05T18:36:38.931Z,22.00
2018-09-05T18:39:09.603Z,22.00
2018-09-05T18:41:39.575Z,21.90
2018-09-05T18:44:09.447Z,21.90
2018-09-05T18:46:39.139Z,21.80
2018-09-05T18:49:08.994Z,21.60
2018-09-05T18:51:39.035Z,21.70
2018-09-05T18:54:09.119Z,21.90
2018-09-05T18:56:38.844Z,21.90
2018-09-05T18:59:08.760Z,21.60
2018-09-05T19:01:38.381Z,21.50
2018-09-05T19:04:08.148Z,21.40
2018-09-05T19:06:37.822Z,21.40
2018-09-05T19:09:10.566Z,21.40
2018-09-05T19:11:40.460Z,21.40
2018-09-05T19:14:11.476Z,21.30
2018-09-05T19:16:41.050Z,21.30
2018-09-05T19:19:10.887Z,21.20
2018-09-05T19:21:40.691Z,21.30
2018-09-05T19:24:10.241Z,21.30
2018-09-05T19:26:39.897Z,21.40
2018-09-05T19:29:09.713Z,21.40
2018-09-05T19:31:39.753Z,21.30
2018-09-05T19:34:10.032Z,21.30
2018-09-05T19:36:39.714Z,21.20
2018-09-05T19:39:10.971Z,21.20
2018-09-05T19:41:41.051Z,21.20
2018-09-05T19:44:10.863Z,21.00
2018-09-05T19:46:40.577Z,21.00
2018-09-05T19:49:10.224Z,21.00
2018-09-05T19:51:39.876Z,21.00
2018-09-05T19:54:09.463Z,21.00
2018-09-05T19:56:39.287Z,21.00
2018-09-05T19:59:09.012Z,21.00
2018-09-05T20:01:38.752Z,21.10
2018-09-05T20:04:08.612Z,21.10
2018-09-05T20:06:38.435Z,21.10
2018-09-05T20:09:09.250Z,21.10
2018-09-05T20:11:38.830Z,21.10
2018-09-05T20:14:08.469Z,21.00
2018-09-05T20:16:38.135Z,21.00
2018-09-05T20:19:07.931Z,21.00
2018-09-05T20:21:37.600Z,21.10
2018-09-05T20:24:07.317Z,21.10
2018-09-05T20:26:37.051Z,21.00
2018-09-05T20:29:06.849Z,21.10
2018-09-05T20:31:36.458Z,21.10
2018-09-05T20:34:06.231Z,21.20
2018-09-05T20:36:36.004Z,21.10
2018-09-05T20:39:08.693Z,21.20
2018-09-05T20:41:38.458Z,21.10
2018-09-05T20:44:08.695Z,21.10
2018-09-05T20:46:38.781Z,21.10
2018-09-05T20:49:08.517Z,21.10
2018-09-05T20:51:38.261Z,21.10
2018-09-05T20:54:08.129Z,21.10
2018-09-05T20:56:37.987Z,21.10
2018-09-05T20:59:08.073Z,21.10
2018-09-05T21:01:37.699Z,21.00
2018-09-05T21:04:07.650Z,21.00
2018-09-05T21:06:37.539Z,21.00
2018-09-05T21:09:08.646Z,20.90
2018-09-05T21:11:38.543Z,20.90
2018-09-05T21:14:08.305Z,20.90
2018-09-05T21:16:37.930Z,20.90
2018-09-05T21:19:07.578Z,20.80
2018-09-05T21:21:37.306Z,20.80
2018-09-05T21:24:07.029Z,20.90
2018-09-05T21:26:37.165Z,20.90
2018-09-05T21:29:06.941Z,21.00
2018-09-05T21:31:36.645Z,21.00
2018-09-05T21:34:06.320Z,21.00
2018-09-05T21:36:37.078Z,21.00
2018-09-05T21:39:14.615Z,21.00
2018-09-05T21:41:45.994Z,21.00
2018-09-05T21:44:17.494Z,21.00
2018-09-05T21:46:47.753Z,21.00
2018-09-05T21:49:17.756Z,21.10
2018-09-05T21:51:47.995Z,21.00
2018-09-05T21:54:18.887Z,20.90
2018-09-05T21:56:49.481Z,20.90
2018-09-05T21:59:19.625Z,20.90
2018-09-05T22:01:49.265Z,20.90
2018-09-05T22:04:19.087Z,20.90
2018-09-05T22:06:49.237Z,20.80
2018-09-05T22:09:18.839Z,20.80
2018-09-05T22:11:48.434Z,20.80
2018-09-05T22:14:18.167Z,20.90
2018-09-05T22:16:47.841Z,20.80
2018-09-05T22:19:17.644Z,20.70
2018-09-05T22:21:47.380Z,20.70
2018-09-05T22:24:17.100Z,20.70
2018-09-05T22:26:46.900Z,20.70
2018-09-05T22:29:16.591Z,20.70
2018-09-05T22:31:46.396Z,20.80
2018-09-05T22:34:16.027Z,20.70
2018-09-05T22:36:45.790Z,20.70
2018-09-05T22:39:15.384Z,20.80
2018-09-05T22:41:45.267Z,20.70
2018-09-05T22:44:25.655Z,20.80
2018-09-05T22:47:05.921Z,20.80
2018-09-05T22:51:06.033Z,20.80
2018-09-05T22:53:55.247Z,20.70
2018-09-05T22:57:40.604Z,20.70
2018-09-05T23:02:27.689Z,20.80
2018-09-05T23:05:11.547Z,20.60
2018-09-05T23:07:59.948Z,20.60
2018-09-05T23:10:40.543Z,20.60
2018-09-05T23:13:20.904Z,20.50
2018-09-05T23:16:01.234Z,20.50
2018-09-05T23:18:41.699Z,20.40
2018-09-05T23:21:18.325Z,20.40
2018-09-05T23:23:57.050Z,20.30
2018-09-05T23:26:27.301Z,20.30
2018-09-05T23:28:56.961Z,20.20
2018-09-05T23:31:26.949Z,20.20
2018-09-05T23:33:56.866Z,20.20
2018-09-05T23:36:26.929Z,20.10
2018-09-05T23:38:56.682Z,20.10
2018-09-05T23:41:26.472Z,20.20
2018-09-05T23:43:56.112Z,20.20
2018-09-05T23:46:25.798Z,20.20
2018-09-05T23:48:55.451Z,20.10
2018-09-05T23:51:25.302Z,20.20
2018-09-05T23:53:55.013Z,20.10
2018-09-05T23:56:24.669Z,20.20
2018-09-05T23:58:54.623Z,20.20
